createdAt,value
2022-11-05T00:04:54.564Z,14.60
2022-11-05T00:09:58.333Z,14.63
2022-11-05T00:15:13.587Z,14.42
2022-11-05T00:20:13.043Z,14.35
2022-11-05T00:25:19.414Z,14.08
2022-11-05T00:30:18.466Z,13.98
2022-11-05T00:35:20.816Z,13.63
2022-11-05T00:40:18.252Z,13.72
2022-11-05T00:45:15.547Z,13.89
2022-11-05T00:50:18.868Z,14.24
2022-11-05T00:55:16.753Z,14.45
2022-11-05T01:00:15.011Z,14.34
2022-11-05T01:05:12.481Z,14.46
2022-11-05T01:10:09.659Z,14.61
2022-11-05T01:15:08.840Z,14.73
2022-11-05T01:20:06.615Z,14.35
2022-11-05T01:25:04.407Z,14.73
2022-11-05T01:30:01.583Z,14.45
2022-11-05T01:34:59.365Z,14.67
2022-11-05T01:39:56.530Z,14.54
2022-11-05T01:44:57.072Z,14.88
2022-11-05T01:49:54.692Z,15.11
2022-11-05T01:54:53.350Z,15.18
2022-11-05T01:59:54.131Z,15.03
2022-11-05T02:04:55.718Z,14.65
2022-11-05T02:09:59.456Z,14.30
2022-11-05T02:14:56.700Z,13.59
2022-11-05T02:20:09.898Z,14.21
2022-11-05T02:25:32.756Z,14.30
2022-11-05T02:30:41.035Z,14.57
2022-11-05T02:35:56.718Z,14.66
2022-11-05T02:40:59.681Z,14.97
2022-11-05T02:46:06.922Z,14.58
2022-11-05T02:51:12.559Z,14.45
2022-11-05T02:56:15.962Z,14.44
2022-11-05T03:01:13.852Z,14.49
2022-11-05T03:06:29.482Z,14.32
2022-11-05T03:11:29.289Z,14.73
2022-11-05T03:16:35.149Z,15.09
2022-11-05T03:21:42.869Z,15.02
2022-11-05T03:26:43.837Z,14.88
2022-11-05T03:31:44.146Z,14.84
2022-11-05T03:36:46.007Z,14.56
2022-11-05T03:41:46.831Z,14.70
2022-11-05T03:46:49.331Z,14.20
2022-11-05T03:51:52.090Z,14.18
2022-11-05T03:56:58.756Z,13.92
2022-11-05T04:01:57.100Z,13.56
2022-11-05T04:07:12.039Z,13.85
2022-11-05T04:12:30.449Z,13.91
2022-11-05T04:17:28.364Z,14.01
2022-11-05T04:22:45.723Z,14.15
2022-11-05T04:27:43.027Z,14.00
2022-11-05T04:32:40.777Z,14.27
2022-11-05T04:37:40.273Z,14.07
2022-11-05T04:42:37.416Z,13.49
2022-11-05T04:47:36.432Z,14.02
2022-11-05T04:52:34.770Z,14.21
2022-11-05T04:57:31.820Z,14.06
2022-11-05T05:02:31.954Z,13.81
2022-11-05T05:07:30.157Z,13.63
2022-11-05T05:12:28.564Z,13.68
2022-11-05T05:17:25.931Z,13.88
2022-11-05T05:22:23.215Z,14.00
2022-11-05T05:27:22.399Z,13.84
2022-11-05T05:32:23.885Z,13.62
2022-11-05T05:37:21.371Z,13.67
2022-11-05T05:42:20.669Z,12.76
2022-11-05T05:47:18.035Z,13.35
2022-11-05T05:52:17.953Z,13.06
2022-11-05T05:57:15.879Z,12.81
2022-11-05T06:02:15.440Z,13.39
2022-11-05T06:07:12.766Z,13.62
2022-11-05T06:12:13.729Z,13.42
2022-11-05T06:17:11.899Z,13.79
2022-11-05T06:22:12.251Z,12.91
2022-11-05T06:27:11.939Z,13.64
2022-11-05T06:32:13.417Z,13.54
2022-11-05T06:37:10.556Z,14.34
2022-11-05T06:42:22.850Z,14.76
2022-11-05T06:47:22.053Z,14.95
2022-11-05T06:52:19.337Z,15.25
2022-11-05T06:57:16.355Z,15.36
2022-11-05T07:02:13.940Z,15.41
2022-11-05T07:07:12.706Z,15.38
2022-11-05T07:12:10.528Z,15.58
2022-11-05T07:17:09.130Z,15.60
2022-11-05T07:22:09.664Z,15.80
2022-11-05T07:27:08.466Z,15.39
2022-11-05T07:32:06.212Z,15.66
2022-11-05T07:37:03.732Z,16.03
2022-11-05T07:42:01.404Z,16.14
2022-11-05T07:47:04.506Z,15.94
2022-11-05T07:52:03.501Z,15.58
2022-11-05T07:57:03.347Z,15.77
2022-11-05T08:02:19.063Z,16.14
2022-11-05T08:07:16.565Z,15.83
2022-11-05T08:12:15.181Z,16.29
2022-11-05T08:17:18.412Z,16.01
2022-11-05T08:22:16.478Z,16.04
2022-11-05T08:27:16.334Z,15.97
2022-11-05T08:32:16.746Z,16.69
2022-11-05T08:37:14.033Z,16.70
2022-11-05T08:42:11.320Z,16.74
2022-11-05T08:47:08.550Z,16.87
2022-11-05T08:52:07.271Z,16.37
2022-11-05T08:57:04.725Z,17.03
2022-11-05T09:02:02.056Z,17.26
2022-11-05T09:07:02.232Z,17.27
2022-11-05T09:12:12.563Z,17.42
2022-11-05T09:17:17.560Z,17.27
2022-11-05T09:22:15.005Z,17.69
2022-11-05T09:27:14.267Z,17.80
2022-11-05T09:32:11.781Z,17.60
2022-11-05T09:37:08.990Z,17.23
2022-11-05T09:42:08.669Z,17.86
2022-11-05T09:47:11.954Z,17.96
2022-11-05T09:52:15.545Z,17.90
2022-11-05T09:57:18.645Z,18.24
2022-11-05T10:02:31.957Z,17.74
2022-11-05T10:07:38.626Z,18.12
2022-11-05T10:12:40.361Z,17.93
2022-11-05T10:17:42.433Z,18.59
2022-11-05T10:22:41.187Z,18.63
2022-11-05T10:27:52.705Z,18.62
2022-11-05T10:32:56.495Z,18.73
2022-11-05T10:37:53.784Z,18.83
2022-11-05T10:43:02.537Z,18.50
2022-11-05T10:48:25.927Z,19.14
2022-11-05T10:53:30.348Z,18.67
2022-11-05T10:58:30.347Z,19.28
2022-11-05T11:03:39.427Z,19.85
2022-11-05T11:08:39.441Z,19.78
2022-11-05T11:13:51.259Z,19.46
2022-11-05T11:18:55.269Z,20.30
2022-11-05T11:23:59.462Z,20.24
2022-11-05T11:28:59.936Z,20.33
2022-11-05T11:34:01.676Z,20.34
2022-11-05T11:39:00.284Z,20.31
2022-11-05T11:44:03.595Z,20.58
2022-11-05T11:49:02.533Z,20.63
2022-11-05T11:54:06.124Z,20.08
2022-11-05T11:59:16.259Z,20.61
2022-11-05T12:04:37.864Z,20.80
2022-11-05T12:09:49.584Z,20.28
2022-11-05T12:14:53.998Z,20.78
2022-11-05T12:20:22.768Z,20.66
2022-11-05T12:25:27.021Z,20.92
2022-11-05T12:30:34.074Z,20.55
2022-11-05T12:35:47.019Z,20.87
2022-11-05T12:41:05.167Z,20.82
2022-11-05T12:46:19.655Z,20.80
2022-11-05T12:51:37.564Z,20.87
2022-11-05T12:56:41.532Z,20.65
2022-11-05T13:01:51.909Z,20.35
2022-11-05T13:06:54.405Z,20.47
2022-11-05T13:11:57.406Z,20.89
2022-11-05T13:17:02.752Z,20.84
2022-11-05T13:22:15.880Z,21.01
2022-11-05T13:27:37.389Z,20.84
2022-11-05T13:32:38.534Z,20.64
2022-11-05T13:38:00.131Z,20.66
2022-11-05T13:43:15.127Z,20.90
2022-11-05T13:48:28.026Z,20.89
2022-11-05T13:53:52.981Z,20.69
2022-11-05T13:59:12.557Z,20.65
2022-11-05T14:04:26.331Z,20.81
2022-11-05T14:09:29.616Z,20.83
2022-11-05T14:14:34.849Z,20.67
2022-11-05T14:19:50.059Z,20.75
2022-11-05T14:24:52.551Z,20.46
2022-11-05T14:29:55.893Z,20.11
2022-11-05T14:35:03.428Z,20.07
2022-11-05T14:40:39.767Z,20.26
2022-11-05T14:45:43.217Z,20.17
2022-11-05T14:50:42.246Z,20.13
2022-11-05T14:55:46.703Z,20.34
2022-11-05T15:00:49.846Z,20.28
2022-11-05T15:05:52.809Z,20.08
2022-11-05T15:10:54.685Z,19.88
2022-11-05T15:15:53.085Z,20.03
2022-11-05T15:20:55.653Z,19.49
2022-11-05T15:26:03.162Z,19.53
2022-11-05T15:31:04.246Z,19.31
2022-11-05T15:36:17.110Z,19.73
2022-11-05T15:41:21.822Z,19.50
2022-11-05T15:46:20.691Z,19.05
2022-11-05T15:51:24.761Z,19.17
2022-11-05T15:56:31.844Z,19.25
2022-11-05T16:01:34.609Z,18.81
2022-11-05T16:06:37.758Z,18.73
2022-11-05T16:11:40.561Z,19.05
2022-11-05T16:16:38.307Z,18.64
2022-11-05T16:21:56.385Z,18.69
2022-11-05T16:27:02.630Z,18.48
2022-11-05T16:32:13.966Z,18.12
2022-11-05T16:37:18.801Z,18.50
2022-11-05T16:42:42.677Z,17.73
2022-11-05T16:47:55.786Z,18.18
2022-11-05T16:52:59.053Z,18.05
2022-11-05T16:58:10.219Z,17.73
2022-11-05T17:03:13.524Z,17.55
2022-11-05T17:08:11.291Z,17.93
2022-11-05T17:13:15.451Z,17.48
2022-11-05T17:18:18.568Z,17.78
2022-11-05T17:23:21.132Z,17.49
2022-11-05T17:28:20.824Z,16.84
2022-11-05T17:33:20.705Z,17.40
2022-11-05T17:38:18.255Z,17.31
2022-11-05T17:43:15.966Z,17.08
2022-11-05T17:48:13.995Z,16.57
2022-11-05T17:53:12.835Z,17.02
2022-11-05T17:58:11.221Z,16.92
2022-11-05T18:03:11.150Z,16.45
2022-11-05T18:08:09.938Z,16.61
2022-11-05T18:13:14.217Z,16.38
2022-11-05T18:18:18.881Z,16.56
2022-11-05T18:23:16.990Z,15.86
2022-11-05T18:28:14.672Z,15.63
2022-11-05T18:33:12.211Z,15.78
2022-11-05T18:38:10.617Z,15.71
2022-11-05T18:43:10.761Z,16.05
2022-11-05T18:48:15.168Z,15.74
2022-11-05T18:53:13.638Z,15.87
2022-11-05T18:58:14.747Z,15.57
2022-11-05T19:03:12.600Z,15.88
2022-11-05T19:08:14.971Z,15.02
2022-11-05T19:13:23.778Z,15.75
2022-11-05T19:18:22.050Z,15.44
2022-11-05T19:23:19.368Z,15.62
2022-11-05T19:28:17.493Z,15.10
2022-11-05T19:33:15.190Z,14.81
2022-11-05T19:38:15.290Z,14.94
2022-11-05T19:43:14.021Z,14.89
2022-11-05T19:48:19.100Z,14.81
2022-11-05T19:53:17.467Z,15.12
2022-11-05T19:58:15.640Z,14.87
2022-11-05T20:03:14.691Z,14.54
2022-11-05T20:08:14.697Z,14.85
2022-11-05T20:13:21.186Z,14.65
2022-11-05T20:18:23.164Z,14.73
2022-11-05T20:23:20.346Z,14.06
2022-11-05T20:28:20.960Z,14.40
2022-11-05T20:33:18.628Z,13.96
2022-11-05T20:38:17.047Z,14.09
2022-11-05T20:43:14.420Z,14.46
2022-11-05T20:48:12.474Z,14.07
2022-11-05T20:53:12.966Z,14.35
2022-11-05T20:58:13.920Z,14.12
2022-11-05T21:03:11.618Z,13.67
2022-11-05T21:08:09.149Z,13.34
2022-11-05T21:13:06.537Z,13.79
2022-11-05T21:18:05.412Z,13.34
2022-11-05T21:23:05.202Z,13.21
2022-11-05T21:28:03.330Z,13.47
2022-11-05T21:33:00.643Z,13.27
2022-11-05T21:38:00.455Z,13.80
2022-11-05T21:42:57.684Z,13.50
2022-11-05T21:47:55.427Z,13.24
2022-11-05T21:53:10.683Z,13.38
2022-11-05T21:58:32.142Z,13.14
2022-11-05T22:03:29.732Z,12.78
2022-11-05T22:08:27.376Z,13.39
2022-11-05T22:13:25.318Z,12.96
2022-11-05T22:18:22.793Z,13.13
2022-11-05T22:23:19.736Z,12.78
2022-11-05T22:28:16.763Z,13.14
2022-11-05T22:33:14.554Z,12.72
2022-11-05T22:38:12.383Z,12.90
2022-11-05T22:43:09.719Z,12.95
2022-11-05T22:48:08.023Z,12.82
2022-11-05T22:53:05.983Z,12.78
2022-11-05T22:58:02.993Z,12.68
2022-11-05T23:03:04.377Z,12.78
2022-11-05T23:08:19.748Z,12.73
2022-11-05T23:13:17.674Z,12.33
2022-11-05T23:18:32.925Z,12.23
2022-11-05T23:23:48.227Z,12.49
2022-11-05T23:28:46.317Z,11.93
2022-11-05T23:33:44.131Z,12.48
2022-11-05T23:38:41.211Z,12.37
2022-11-05T23:43:56.535Z,12.31
2022-11-05T23:48:54.272Z,12.19
2022-11-05T23:53:51.662Z,12.13
2022-11-05T23:58:48.852Z,12.25
